Ada, Kansas
Current Conditions -  °F | °C
As of 12:53 PM on Thursday 30 Oct 2014 (Local Time) from KSLN Reporting Station
Clear Clear  
Wind Chill: 71°   Ceiling: Unl
Heat Index: 71°   Visibility: 10mi
Dew Point: 38°   Wind: 24mph
Humidity: 30%   Direction: 340°NNW
Pressure: 30.15"   Gusts: 30mph
Location:  39.1542°N, 97.5941°W
Report Text: KSLN 301753Z 34021G26KT 10SM CLR 22/03 A3015 RMK AO2 PK WND 35026/1750 SLP203 T02170033 10217 20089 50000
Loading
Personal Weather Stations






























Interactive Weather Map
Tropical Storm Tracking
New forecast layout! Learn more

10-Day Weather Forecast

Advertisements
Track Severe Weather on mobile